»·PEaware :: DCM612 KPDX-KSFO

DCM612 :: KPDX-KSFO

FLIGHT INFORMATION

Flight Status: Arrived
Operator: Unknown
More flights by this operator :: More flights under this callsign
Pilot: Joe C. (19058)
Aircraft: BOMBARDIER BD-100 CHALLENGER 300
(CL30)
More flights by this aircraft type
Origin: KPDX Portland Intl
United States
Destination: KSFO San Francisco Intl
United States
More flights between these airports :: More routes between these airports
Route: +MINNE5 FAMUK Q3 FOWND MLBEC BDEGA3
File this flight plan on PilotEdge
Remarks: SIMBRIEF
Altitude:
(Current/Filed)
37,000ft
Speed:
(Current/Filed)
462kts
Departed: 25-Sep-18 06:27 PM
Arrived: 25-Sep-18 07:52 PM
Distance/Time
Traveled:
478nm/1:24
Distance/Time
To Go:
Arrived

Flight Plot

Page will automatically refresh every two minutes.

Flight plan parsing failed; only flown route is shown


Map Options




Map Legend


Flown Route
Filed Route
Departure Airport
Arrival Airport
Navaid (VOR, NDB)
Fix

Horizontal Profiles

Position Reports

Time Latitude Longitude Heading Altitude Ground
Speed
25-Sep-18 18:13 45.588248 -122.585112 297 23ft 0kts
25-Sep-18 18:14 45.588248 -122.585112 297 23ft 0kts
25-Sep-18 18:15 45.588248 -122.585112 297 23ft 0kts
25-Sep-18 18:16 45.588248 -122.585112 297 23ft 0kts
25-Sep-18 18:17 45.588248 -122.585112 297 23ft 0kts
25-Sep-18 18:18 45.588248 -122.585112 297 23ft 0kts
25-Sep-18 18:19 45.588248 -122.585112 297 23ft 0kts
25-Sep-18 18:20 45.588248 -122.585112 297 23ft 0kts
25-Sep-18 18:21 45.588248 -122.585112 297 23ft 0kts
25-Sep-18 18:22 45.588248 -122.585113 297 23ft 0kts
25-Sep-18 18:23 45.588248 -122.585113 297 23ft 0kts
25-Sep-18 18:24 45.588248 -122.585113 297 23ft 0kts
25-Sep-18 18:25 45.588022 -122.583746 103 23ft 20kts
25-Sep-18 18:26 45.586453 -122.577385 118 23ft 16kts
25-Sep-18 18:27 45.583531 -122.569918 118 23ft 15kts
25-Sep-18 18:28 45.583422 -122.569274 61 23ft 0kts
25-Sep-18 18:29 45.588309 -122.579125 300 54ft 140kts
25-Sep-18 18:30 45.611654 -122.643463 285 2300ft 222kts
25-Sep-18 18:31 45.642681 -122.733059 301 5273ft 280kts
25-Sep-18 18:32 45.664549 -122.833126 260 11210ft 298kts
25-Sep-18 18:33 45.609075 -122.913418 190 15661ft 339kts
25-Sep-18 18:34 45.511036 -122.932287 186 18121ft 385kts
25-Sep-18 18:35 45.401514 -122.947238 185 21382ft 409kts
25-Sep-18 18:36 45.286060 -122.961195 185 24267ft 428kts
25-Sep-18 18:37 45.166020 -122.982048 191 26771ft 444kts
25-Sep-18 18:38 45.042807 -123.010702 190 29090ft 455kts
25-Sep-18 18:39 44.917270 -123.039842 190 31171ft 463kts
25-Sep-18 18:40 44.790309 -123.069177 190 33244ft 463kts
25-Sep-18 18:41 44.685238 -123.093379 190 35077ft 457kts
25-Sep-18 18:42 44.540414 -123.126601 190 37127ft 458kts
25-Sep-18 18:43 44.430902 -123.132405 179 37143ft 492kts
25-Sep-18 18:44 44.272928 -123.127584 179 37132ft 470kts
25-Sep-18 18:45 44.167536 -123.123925 179 37134ft 446kts
25-Sep-18 18:46 44.027829 -123.119002 179 37135ft 418kts
25-Sep-18 18:47 43.932913 -123.115657 179 37136ft 402kts
25-Sep-18 18:48 43.824163 -123.111832 179 37131ft 385kts
25-Sep-18 18:49 43.711855 -123.107909 179 37143ft 426kts
25-Sep-18 18:50 43.588187 -123.103593 179 37125ft 462kts
25-Sep-18 18:51 43.456136 -123.099001 179 37105ft 491kts
25-Sep-18 18:52 43.318025 -123.094214 179 37100ft 497kts
25-Sep-18 18:53 43.181180 -123.089498 179 37101ft 492kts
25-Sep-18 18:54 43.045398 -123.084842 179 37102ft 488kts
25-Sep-18 18:55 42.910547 -123.080320 177 37100ft 486kts
25-Sep-18 18:56 42.774105 -123.075617 177 37072ft 497kts
25-Sep-18 18:57 42.639437 -123.071053 177 37052ft 479kts
25-Sep-18 18:58 42.507778 -123.066615 177 37053ft 471kts
25-Sep-18 18:59 42.377509 -123.062355 177 37055ft 468kts
25-Sep-18 19:00 42.247664 -123.058155 177 37056ft 469kts
25-Sep-18 19:01 42.117211 -123.053953 177 37057ft 472kts
25-Sep-18 19:02 41.985693 -123.049737 177 37067ft 475kts
25-Sep-18 19:03 41.854172 -123.045537 177 37091ft 477kts
25-Sep-18 19:04 41.721402 -123.041316 177 37126ft 478kts
25-Sep-18 19:05 41.588619 -123.037110 177 37127ft 480kts
25-Sep-18 19:06 41.455169 -123.032902 177 37128ft 482kts
25-Sep-18 19:07 41.321454 -123.028730 177 37129ft 483kts
25-Sep-18 19:08 41.187230 -123.024660 177 37129ft 485kts
25-Sep-18 19:09 41.052348 -123.020617 177 37070ft 487kts
25-Sep-18 19:10 40.917224 -123.016548 176 36927ft 484kts
25-Sep-18 19:11 40.785711 -123.012597 176 36924ft 475kts
25-Sep-18 19:12 40.654713 -123.008696 176 36925ft 469kts
25-Sep-18 19:13 40.525796 -123.004857 176 36925ft 464kts
25-Sep-18 19:14 40.397465 -123.001054 176 36926ft 460kts
25-Sep-18 19:15 40.270081 -122.997297 176 36928ft 457kts
25-Sep-18 19:16 40.143512 -122.993578 176 36936ft 455kts
25-Sep-18 19:17 40.017393 -122.989887 176 36946ft 454kts
25-Sep-18 19:18 39.892310 -122.986239 176 36948ft 453kts
25-Sep-18 19:19 39.766474 -122.982578 176 36658ft 460kts
25-Sep-18 19:20 39.636357 -122.978807 176 34677ft 475kts
25-Sep-18 19:21 39.504163 -122.974991 176 32676ft 474kts
25-Sep-18 19:22 39.384554 -122.971581 176 30825ft 461kts
25-Sep-18 19:23 39.259070 -122.967972 176 28986ft 448kts
25-Sep-18 19:24 39.136480 -122.964482 176 28963ft 438kts
25-Sep-18 19:25 39.015697 -122.961780 177 28966ft 434kts
25-Sep-18 19:26 38.895595 -122.959382 176 28713ft 436kts
25-Sep-18 19:27 38.777878 -122.929415 165 26711ft 432kts
25-Sep-18 19:28 38.661719 -122.895712 165 24990ft 419kts
25-Sep-18 19:29 38.554905 -122.864385 165 24975ft 377kts
25-Sep-18 19:30 38.448920 -122.833196 165 23592ft 398kts
25-Sep-18 19:31 38.343195 -122.802192 165 21683ft 383kts
25-Sep-18 19:32 38.243049 -122.772896 165 20981ft 366kts
25-Sep-18 19:33 38.143364 -122.743867 165 19670ft 366kts
25-Sep-18 19:34 38.045918 -122.715584 165 17668ft 356kts
25-Sep-18 19:35 37.952055 -122.688422 165 15656ft 335kts
25-Sep-18 19:36 37.872248 -122.639713 140 13646ft 316kts
25-Sep-18 19:37 37.805711 -122.572271 139 11639ft 298kts
25-Sep-18 19:38 37.743180 -122.507133 138 10999ft 294kts
25-Sep-18 19:39 37.680767 -122.441141 138 10986ft 285kts
25-Sep-18 19:40 37.620690 -122.377688 142 10977ft 282kts
25-Sep-18 19:41 37.550592 -122.332345 151 10990ft 287kts
25-Sep-18 19:42 37.483034 -122.288887 142 10611ft 260kts
25-Sep-18 19:43 37.446530 -122.216151 118 8853ft 239kts
25-Sep-18 19:44 37.413836 -122.145714 117 6848ft 227kts
25-Sep-18 19:45 37.445056 -122.096896 23 4901ft 211kts
25-Sep-18 19:46 37.498597 -122.089366 304 3988ft 170kts
25-Sep-18 19:47 37.517294 -122.130882 301 3951ft 130kts
25-Sep-18 19:48 37.535512 -122.172602 300 3269ft 128kts
25-Sep-18 19:49 37.552482 -122.212180 298 2591ft 132kts
25-Sep-18 19:50 37.569678 -122.252736 297 1866ft 130kts
25-Sep-18 19:51 37.586367 -122.292350 297 1163ft 124kts
25-Sep-18 19:52 37.602098 -122.329813 297 522ft 121kts
25-Sep-18 19:53 37.617283 -122.366143 297 10ft 93kts
25-Sep-18 19:54 37.622369 -122.375499 47 19ft 0kts
25-Sep-18 19:55 37.623210 -122.376440 293 20ft 0kts

Navigation Log

Ident Type
Flight plan parsing failed, navigation log unavailable